createdAt,value
2018-06-13T00:00:05.416Z,14.89
2018-06-13T00:01:14.059Z,14.92
2018-06-13T00:02:22.708Z,14.87
2018-06-13T00:03:31.358Z,14.86
2018-06-13T00:04:40.263Z,14.89
2018-06-13T00:05:48.903Z,14.92
2018-06-13T00:06:57.552Z,14.9
2018-06-13T00:08:06.203Z,14.92
2018-06-13T00:09:15.108Z,14.89
2018-06-13T00:10:23.749Z,14.89
2018-06-13T00:11:32.400Z,14.85
2018-06-13T00:12:41.044Z,14.81
2018-06-13T00:13:49.694Z,14.71
2018-06-13T00:14:58.594Z,14.71
2018-06-13T00:16:07.504Z,14.78
2018-06-13T00:17:16.154Z,14.63
2018-06-13T00:18:24.796Z,14.74
2018-06-13T00:19:33.447Z,14.73
2018-06-13T00:20:42.086Z,14.77
2018-06-13T00:21:50.731Z,14.74
2018-06-13T00:22:59.378Z,14.71
2018-06-13T00:24:08.026Z,14.71
2018-06-13T00:25:17.190Z,14.74
2018-06-13T00:26:25.837Z,14.77
2018-06-13T00:27:34.746Z,14.78
2018-06-13T00:28:43.400Z,14.74
2018-06-13T00:29:52.036Z,14.74
2018-06-13T00:31:00.687Z,14.73
2018-06-13T00:32:09.330Z,14.73
2018-06-13T00:33:17.983Z,14.67
2018-06-13T00:34:26.894Z,14.63
2018-06-13T00:35:35.536Z,14.78
2018-06-13T00:36:44.489Z,14.66
2018-06-13T00:37:53.108Z,14.66
2018-06-13T00:39:01.762Z,14.61
2018-06-13T00:40:10.406Z,14.68
2018-06-13T00:41:19.054Z,14.66
2018-06-13T00:42:27.949Z,14.63
2018-06-13T00:43:37.134Z,14.62
2018-06-13T00:44:46.038Z,14.61
2018-06-13T00:45:54.687Z,14.66
2018-06-13T00:47:03.322Z,14.58
2018-06-13T00:48:11.977Z,14.7
2018-06-13T00:49:20.624Z,14.58
2018-06-13T00:50:29.532Z,14.61
2018-06-13T00:51:38.168Z,14.66
2018-06-13T00:52:46.816Z,14.67
2018-06-13T00:53:55.467Z,14.63
2018-06-13T00:55:04.118Z,14.73
2018-06-13T00:56:12.767Z,14.58
2018-06-13T00:57:21.403Z,14.7
2018-06-13T00:58:30.054Z,14.58
2018-06-13T00:59:38.692Z,14.67
2018-06-13T01:00:47.609Z,14.62
2018-06-13T01:01:56.247Z,14.62
2018-06-13T01:03:04.902Z,14.61
2018-06-13T01:04:13.544Z,14.61
2018-06-13T01:05:22.199Z,14.59
2018-06-13T01:06:31.095Z,14.71
2018-06-13T01:07:40.008Z,14.59
2018-06-13T01:08:48.653Z,14.56
2018-06-13T01:09:57.314Z,14.58
2018-06-13T01:11:05.951Z,14.56
2018-06-13T01:12:14.589Z,14.61
2018-06-13T01:13:23.232Z,14.49
2018-06-13T01:14:31.874Z,14.56
2018-06-13T01:15:40.810Z,14.52
2018-06-13T01:16:49.713Z,14.48
2018-06-13T01:17:58.629Z,14.55
2018-06-13T01:19:07.531Z,14.55
2018-06-13T01:20:16.185Z,14.51
2018-06-13T01:21:24.826Z,14.53
2018-06-13T01:22:33.474Z,14.58
2018-06-13T01:23:42.112Z,14.59
2018-06-13T01:24:51.022Z,14.49
2018-06-13T01:25:59.665Z,14.53
2018-06-13T01:27:08.311Z,14.51
2018-06-13T01:28:16.950Z,14.51
2018-06-13T01:29:25.599Z,14.56
2018-06-13T01:30:34.248Z,14.56
2018-06-13T01:31:42.901Z,14.58
2018-06-13T01:32:51.549Z,14.49
2018-06-13T01:34:00.194Z,14.49
2018-06-13T01:35:08.838Z,14.52
2018-06-13T01:36:17.481Z,14.44
2018-06-13T01:37:26.134Z,14.55
2018-06-13T01:38:34.775Z,14.41
2018-06-13T01:39:43.421Z,14.48
2018-06-13T01:40:52.066Z,14.43
2018-06-13T01:42:00.715Z,14.52
2018-06-13T01:43:09.356Z,14.52
2018-06-13T01:44:18.002Z,14.49
2018-06-13T01:45:26.645Z,14.56
2018-06-13T01:46:35.295Z,14.51
2018-06-13T01:47:43.943Z,14.48
2018-06-13T01:48:52.583Z,14.44
2018-06-13T01:50:01.235Z,14.41
2018-06-13T01:51:09.876Z,14.41
2018-06-13T01:52:18.521Z,14.44
2018-06-13T01:53:27.166Z,14.43
2018-06-13T01:54:35.808Z,14.44
2018-06-13T01:55:44.449Z,14.38
2018-06-13T01:56:53.099Z,14.48
2018-06-13T01:58:01.744Z,14.43
2018-06-13T01:59:10.389Z,14.43
2018-06-13T02:00:19.032Z,14.37
2018-06-13T02:01:27.679Z,14.49
2018-06-13T02:02:36.321Z,14.48
2018-06-13T02:03:44.968Z,14.43
2018-06-13T02:04:53.610Z,14.45
2018-06-13T02:06:02.261Z,14.4
2018-06-13T02:07:11.169Z,14.37
2018-06-13T02:08:19.817Z,14.33
2018-06-13T02:09:28.729Z,14.36
2018-06-13T02:10:37.367Z,14.31
2018-06-13T02:11:46.011Z,14.3
2018-06-13T02:12:54.657Z,14.33
2018-06-13T02:14:03.306Z,14.36
2018-06-13T02:15:11.947Z,14.3
2018-06-13T02:16:20.854Z,14.31
2018-06-13T02:17:29.502Z,14.4
2018-06-13T02:18:38.152Z,14.36
2018-06-13T02:19:47.055Z,14.3
2018-06-13T02:20:55.963Z,14.31
2018-06-13T02:22:04.609Z,14.23
2018-06-13T02:23:13.249Z,14.28
2018-06-13T02:24:21.895Z,14.31
2018-06-13T02:25:30.547Z,14.28
2018-06-13T02:26:39.192Z,14.33
2018-06-13T02:27:47.840Z,14.3
2018-06-13T02:28:56.478Z,14.36
2018-06-13T02:30:05.394Z,14.22
2018-06-13T02:31:14.035Z,14.3
2018-06-13T02:32:22.688Z,14.31
2018-06-13T02:33:31.330Z,14.26
2018-06-13T02:34:39.980Z,14.3
2018-06-13T02:35:48.887Z,14.26
2018-06-13T02:36:57.540Z,14.28
2018-06-13T02:38:06.181Z,14.3
2018-06-13T02:39:14.830Z,14.23
2018-06-13T02:40:23.740Z,14.25
2018-06-13T02:41:32.391Z,14.3
2018-06-13T02:42:41.034Z,14.26
2018-06-13T02:43:49.685Z,14.26
2018-06-13T02:44:58.335Z,14.28
2018-06-13T02:46:06.980Z,14.3
2018-06-13T02:47:16.158Z,14.26
2018-06-13T02:48:24.804Z,14.3
2018-06-13T02:49:33.455Z,14.26
2018-06-13T02:50:42.627Z,14.26
2018-06-13T02:51:51.536Z,14.2
2018-06-13T02:53:00.182Z,14.28
2018-06-13T02:54:09.355Z,14.3
2018-06-13T02:55:18.014Z,14.25
2018-06-13T02:56:26.664Z,14.23
2018-06-13T02:57:35.318Z,14.22
2018-06-13T02:58:44.775Z,14.22
2018-06-13T02:59:53.726Z,14.16
2018-06-13T03:01:02.563Z,14.15
2018-06-13T03:02:11.500Z,14.11
2018-06-13T03:03:20.460Z,14.15
2018-06-13T03:04:29.108Z,14.18
2018-06-13T03:05:38.007Z,14.23
2018-06-13T03:06:46.656Z,14.15
2018-06-13T03:07:55.569Z,14.25
2018-06-13T03:09:04.220Z,14.23
2018-06-13T03:10:13.126Z,14.22
2018-06-13T03:11:21.778Z,14.22
2018-06-13T03:12:30.427Z,14.25
2018-06-13T03:13:39.345Z,14.22
2018-06-13T03:14:47.989Z,14.26
2018-06-13T03:15:56.638Z,14.2
2018-06-13T03:17:05.284Z,14.23
2018-06-13T03:18:13.934Z,14.2
2018-06-13T03:19:22.577Z,14.23
2018-06-13T03:20:31.223Z,14.2
2018-06-13T03:21:39.863Z,14.26
2018-06-13T03:22:48.505Z,14.25
2018-06-13T03:23:57.161Z,14.22
2018-06-13T03:25:05.801Z,14.23
2018-06-13T03:26:14.454Z,14.23
2018-06-13T03:27:23.090Z,14.25
2018-06-13T03:28:31.746Z,14.26
2018-06-13T03:29:40.389Z,14.3
2018-06-13T03:30:49.323Z,14.33
2018-06-13T03:31:58.233Z,14.22
2018-06-13T03:33:07.165Z,14.26
2018-06-13T03:34:15.808Z,14.28
2018-06-13T03:35:24.465Z,14.26
2018-06-13T03:36:33.102Z,14.25
2018-06-13T03:37:41.749Z,14.28
2018-06-13T03:38:50.399Z,14.22
2018-06-13T03:39:59.047Z,14.25
2018-06-13T03:41:07.695Z,14.23
2018-06-13T03:42:16.326Z,14.22
2018-06-13T03:43:24.975Z,14.25
2018-06-13T03:44:33.615Z,14.18
2018-06-13T03:45:42.268Z,14.19
2018-06-13T03:46:51.167Z,14.22
2018-06-13T03:47:59.815Z,14.22
2018-06-13T03:49:08.719Z,14.28
2018-06-13T03:50:17.642Z,14.3
2018-06-13T03:51:26.281Z,14.28
2018-06-13T03:52:34.927Z,14.25
2018-06-13T03:53:43.570Z,14.23
2018-06-13T03:54:52.780Z,14.28
2018-06-13T03:56:01.424Z,14.28
2018-06-13T03:57:10.323Z,14.25
2018-06-13T03:58:18.966Z,14.25
2018-06-13T03:59:27.870Z,14.25
2018-06-13T04:00:36.524Z,14.25
2018-06-13T04:01:45.478Z,14.25
2018-06-13T04:02:54.075Z,14.28
2018-06-13T04:04:02.710Z,14.28
2018-06-13T04:05:11.364Z,14.25
2018-06-13T04:06:20.005Z,14.3
2018-06-13T04:07:28.653Z,14.34
2018-06-13T04:08:37.289Z,14.33
2018-06-13T04:09:45.947Z,14.26
2018-06-13T04:10:54.590Z,14.28
2018-06-13T04:12:03.240Z,14.3
2018-06-13T04:13:11.877Z,14.28
2018-06-13T04:14:20.787Z,14.25
2018-06-13T04:15:29.435Z,14.23
2018-06-13T04:16:38.081Z,14.3
2018-06-13T04:17:46.996Z,14.37
2018-06-13T04:18:55.637Z,14.38
2018-06-13T04:20:04.570Z,14.38
2018-06-13T04:21:13.214Z,14.41
2018-06-13T04:22:21.899Z,14.41
2018-06-13T04:23:30.503Z,14.45
2018-06-13T04:24:39.151Z,14.48
2018-06-13T04:25:47.795Z,14.48
2018-06-13T04:26:56.444Z,14.37
2018-06-13T04:28:05.082Z,14.41
2018-06-13T04:29:14.000Z,14.37
2018-06-13T04:30:22.642Z,14.45
2018-06-13T04:31:31.296Z,14.44
2018-06-13T04:32:40.245Z,14.44
2018-06-13T04:33:48.874Z,14.4
2018-06-13T04:34:57.516Z,14.43
2018-06-13T04:36:06.473Z,14.4
2018-06-13T04:37:15.081Z,14.48
2018-06-13T04:38:23.983Z,14.45
2018-06-13T04:39:32.633Z,14.48
2018-06-13T04:40:41.530Z,14.43
2018-06-13T04:41:50.191Z,14.44
2018-06-13T04:42:58.825Z,14.44
2018-06-13T04:44:07.738Z,14.43
2018-06-13T04:45:16.374Z,14.43
2018-06-13T04:46:25.030Z,14.45
2018-06-13T04:47:33.672Z,14.38
2018-06-13T04:48:42.320Z,14.4
2018-06-13T04:49:50.954Z,14.44
2018-06-13T04:50:59.602Z,14.41
2018-06-13T04:52:08.252Z,14.44
2018-06-13T04:53:16.899Z,14.45
2018-06-13T04:54:26.089Z,14.45
2018-06-13T04:55:34.724Z,14.4
2018-06-13T04:56:43.376Z,14.48
2018-06-13T04:57:52.020Z,14.43
2018-06-13T04:59:00.677Z,14.48
2018-06-13T05:00:09.312Z,14.45
2018-06-13T05:01:17.959Z,14.55
2018-06-13T05:02:26.601Z,14.48
2018-06-13T05:03:35.253Z,14.49
2018-06-13T05:04:44.419Z,14.61
2018-06-13T05:05:53.329Z,14.58
2018-06-13T05:07:01.974Z,14.59
2018-06-13T05:08:10.631Z,14.62
2018-06-13T05:09:19.271Z,14.63
2018-06-13T05:10:27.913Z,14.61
2018-06-13T05:11:36.547Z,14.68
2018-06-13T05:12:45.449Z,14.67
2018-06-13T05:13:54.105Z,14.66
2018-06-13T05:15:02.744Z,14.67
2018-06-13T05:16:11.394Z,14.73
2018-06-13T05:17:20.029Z,14.81
2018-06-13T05:18:28.687Z,14.85
2018-06-13T05:19:37.331Z,14.85
2018-06-13T05:20:45.975Z,14.87
2018-06-13T05:21:54.615Z,14.9
2018-06-13T05:23:03.264Z,14.81
2018-06-13T05:24:11.907Z,14.87
2018-06-13T05:25:20.553Z,14.93
2018-06-13T05:26:29.197Z,14.93
2018-06-13T05:27:37.852Z,14.9
2018-06-13T05:28:46.498Z,15.05
2018-06-13T05:29:55.410Z,14.89
2018-06-13T05:31:04.056Z,14.97
2018-06-13T05:32:12.695Z,15.05
2018-06-13T05:33:21.340Z,14.97
2018-06-13T05:34:30.043Z,15.04
2018-06-13T05:35:38.646Z,15.02
2018-06-13T05:36:47.282Z,15.02
2018-06-13T05:37:55.927Z,15.14
2018-06-13T05:39:04.572Z,15.22
2018-06-13T05:40:13.224Z,15.22
2018-06-13T05:41:22.130Z,15.22
2018-06-13T05:42:30.781Z,15.23
2018-06-13T05:43:39.422Z,15.1
2018-06-13T05:44:48.075Z,15.14
2018-06-13T05:45:56.985Z,15.14
2018-06-13T05:47:05.897Z,15.22
2018-06-13T05:48:14.538Z,15.17
2018-06-13T05:49:23.181Z,15.15
2018-06-13T05:50:31.831Z,15.15
2018-06-13T05:51:40.477Z,15.15
2018-06-13T05:52:49.122Z,15.12
2018-06-13T05:53:57.763Z,15.08
2018-06-13T05:55:06.688Z,15.07
2018-06-13T05:56:15.336Z,14.99
2018-06-13T05:57:23.978Z,15.04
2018-06-13T05:58:32.650Z,15
2018-06-13T05:59:41.304Z,14.93
2018-06-13T06:00:50.211Z,14.89
2018-06-13T06:01:58.859Z,15.02
2018-06-13T06:03:07.500Z,15
2018-06-13T06:04:16.148Z,15.05
2018-06-13T06:05:24.794Z,14.99
2018-06-13T06:06:33.443Z,15.02
2018-06-13T06:07:42.350Z,15.04
2018-06-13T06:08:50.990Z,14.99
2018-06-13T06:09:59.634Z,15.02
2018-06-13T06:11:08.278Z,15.02
2018-06-13T06:12:16.929Z,15.05
2018-06-13T06:13:25.570Z,15.12
2018-06-13T06:14:34.215Z,15.23
2018-06-13T06:15:42.862Z,15.19
2018-06-13T06:16:51.512Z,15.15
2018-06-13T06:18:00.155Z,15.23
2018-06-13T06:19:09.070Z,15.22
2018-06-13T06:20:17.718Z,15.18
2018-06-13T06:21:26.376Z,15.19
2018-06-13T06:22:35.024Z,15.22
2018-06-13T06:23:43.672Z,15.19
2018-06-13T06:24:52.591Z,15.29
2018-06-13T06:26:01.236Z,15.47
2018-06-13T06:27:10.138Z,15.41
2018-06-13T06:28:18.784Z,15.39
2018-06-13T06:29:27.430Z,15.47
2018-06-13T06:30:36.091Z,15.41
2018-06-13T06:31:45.023Z,15.59
2018-06-13T06:32:53.933Z,15.6
2018-06-13T06:34:02.579Z,15.51
2018-06-13T06:35:11.499Z,15.59
2018-06-13T06:36:20.140Z,15.6
2018-06-13T06:37:28.789Z,15.65
2018-06-13T06:38:37.433Z,15.62
2018-06-13T06:39:46.094Z,15.69
2018-06-13T06:40:55.271Z,15.63
2018-06-13T06:42:03.925Z,15.63
2018-06-13T06:43:12.567Z,15.7
2018-06-13T06:44:21.224Z,15.62
2018-06-13T06:45:29.874Z,15.69
2018-06-13T06:46:38.521Z,15.75
2018-06-13T06:47:47.168Z,15.87
2018-06-13T06:48:55.810Z,15.96
2018-06-13T06:50:04.741Z,15.91
2018-06-13T06:51:13.387Z,15.99
2018-06-13T06:52:22.034Z,16.1
2018-06-13T06:53:30.677Z,16.17
2018-06-13T06:54:39.325Z,16.36
2018-06-13T06:55:47.970Z,16.32
2018-06-13T06:56:56.618Z,16.43
2018-06-13T06:58:05.259Z,16.61
2018-06-13T06:59:13.907Z,16.68
2018-06-13T07:00:22.552Z,16.64
2018-06-13T07:01:31.201Z,16.69
2018-06-13T07:02:39.890Z,16.69
2018-06-13T07:03:49.111Z,16.72
2018-06-13T07:04:57.756Z,16.68
2018-06-13T07:06:06.404Z,16.64
2018-06-13T07:07:15.321Z,16.69
2018-06-13T07:08:23.962Z,16.62
2018-06-13T07:09:32.879Z,16.74
2018-06-13T07:10:41.526Z,16.73
2018-06-13T07:11:50.178Z,16.69
2018-06-13T07:12:58.816Z,16.89
2018-06-13T07:14:07.728Z,16.86
2018-06-13T07:15:16.375Z,16.99
2018-06-13T07:16:25.028Z,16.98
2018-06-13T07:17:33.932Z,16.94
2018-06-13T07:18:42.576Z,16.98
2018-06-13T07:19:51.219Z,17.07
2018-06-13T07:20:59.861Z,17.04
2018-06-13T07:22:08.782Z,17.05
2018-06-13T07:23:17.427Z,17.1
2018-06-13T07:24:26.077Z,17.13
2018-06-13T07:25:34.716Z,17.1
2018-06-13T07:26:43.374Z,17.16
2018-06-13T07:27:52.016Z,17.09
2018-06-13T07:29:00.929Z,17.01
2018-06-13T07:30:09.571Z,17.01
2018-06-13T07:31:18.496Z,16.95
2018-06-13T07:32:27.141Z,16.95
2018-06-13T07:33:35.902Z,17.01
2018-06-13T07:34:44.449Z,17.05
2018-06-13T07:35:53.108Z,17.16
2018-06-13T07:37:01.759Z,17.2
2018-06-13T07:38:10.410Z,17.09
2018-06-13T07:39:19.058Z,17.01
2018-06-13T07:40:27.960Z,16.83
2018-06-13T07:41:36.612Z,16.8
2018-06-13T07:42:45.256Z,16.74
2018-06-13T07:43:53.913Z,16.82
2018-06-13T07:45:02.552Z,16.77
2018-06-13T07:46:11.475Z,16.66
2018-06-13T07:47:20.120Z,16.72
2018-06-13T07:48:28.781Z,16.72
2018-06-13T07:49:37.462Z,16.73
2018-06-13T07:50:46.067Z,16.65
2018-06-13T07:51:54.713Z,16.66
2018-06-13T07:53:03.369Z,16.62
2018-06-13T07:54:12.015Z,16.69
2018-06-13T07:55:20.660Z,16.73
2018-06-13T07:56:29.581Z,16.69
2018-06-13T07:57:38.226Z,16.91
2018-06-13T07:58:46.884Z,16.94
2018-06-13T07:59:55.524Z,16.92
2018-06-13T08:01:04.176Z,16.99
2018-06-13T08:02:12.832Z,17.04
2018-06-13T08:03:21.783Z,16.99
2018-06-13T08:04:30.435Z,16.99
2018-06-13T08:05:39.346Z,16.97
2018-06-13T08:06:47.984Z,16.91
2018-06-13T08:07:56.907Z,16.83
2018-06-13T08:09:05.825Z,16.68
2018-06-13T08:10:14.476Z,16.73
2018-06-13T08:11:23.112Z,16.58
2018-06-13T08:12:31.765Z,16.37
2018-06-13T08:13:40.684Z,16.26
2018-06-13T08:14:49.336Z,16.25
2018-06-13T08:15:57.986Z,16.13
2018-06-13T08:17:06.628Z,16.13
2018-06-13T08:18:15.278Z,16.25
2018-06-13T08:19:23.925Z,16.28
2018-06-13T08:20:32.574Z,16.16
2018-06-13T08:21:41.218Z,16.16
2018-06-13T08:22:49.865Z,16.1
2018-06-13T08:23:58.513Z,16.12
2018-06-13T08:25:07.465Z,16.08
2018-06-13T08:26:16.111Z,16.12
2018-06-13T08:27:24.757Z,16.17
2018-06-13T08:28:33.402Z,16.18
2018-06-13T08:29:42.054Z,16.12
2018-06-13T08:30:50.775Z,16.16
2018-06-13T08:31:59.546Z,16.13
2018-06-13T08:33:08.191Z,16.18
2018-06-13T08:34:16.837Z,16.28
2018-06-13T08:35:25.760Z,16.31
2018-06-13T08:36:34.413Z,16.31
2018-06-13T08:37:43.060Z,16.39
2018-06-13T08:38:51.701Z,16.29
2018-06-13T08:40:00.352Z,16.36
2018-06-13T08:41:09.030Z,16.43
2018-06-13T08:42:17.737Z,16.36
2018-06-13T08:43:26.655Z,16.37
2018-06-13T08:44:35.306Z,16.36
2018-06-13T08:45:44.106Z,16.26
2018-06-13T08:46:53.110Z,16.12
2018-06-13T08:48:02.167Z,16.13
2018-06-13T08:49:10.978Z,16.18
2018-06-13T08:50:19.624Z,16.12
2018-06-13T08:51:28.556Z,16.09
2018-06-13T08:52:37.197Z,16.12
2018-06-13T08:53:45.839Z,16.18
2018-06-13T08:54:54.486Z,16.16
2018-06-13T08:56:03.153Z,16.32
2018-06-13T08:57:11.801Z,16.39
2018-06-13T08:58:20.650Z,16.5
2018-06-13T08:59:29.358Z,16.73
2018-06-13T09:00:38.006Z,16.72
2018-06-13T09:01:46.657Z,17.02
2018-06-13T09:02:55.563Z,17.14
2018-06-13T09:04:04.272Z,17.23
2018-06-13T09:05:13.385Z,17.35
2018-06-13T09:06:22.223Z,17.42
2018-06-13T09:07:31.034Z,17.46
2018-06-13T09:08:39.908Z,17.3
2018-06-13T09:09:48.649Z,17.37
2018-06-13T09:10:57.333Z,17.44
2018-06-13T09:12:06.007Z,17.54
2018-06-13T09:13:15.246Z,17.59
2018-06-13T09:14:23.898Z,17.65
2018-06-13T09:15:32.536Z,17.68
2018-06-13T09:16:41.194Z,17.65
2018-06-13T09:17:49.839Z,17.54
2018-06-13T09:18:58.490Z,17.63
2018-06-13T09:20:07.129Z,17.6
2018-06-13T09:21:15.787Z,17.69
2018-06-13T09:22:24.707Z,17.76
2018-06-13T09:23:33.740Z,17.82
2018-06-13T09:24:42.377Z,17.79
2018-06-13T09:25:51.027Z,17.93
2018-06-13T09:26:59.678Z,18.16
2018-06-13T09:28:08.589Z,18.19
2018-06-13T09:29:17.241Z,18.28
2018-06-13T09:30:25.881Z,18.34
2018-06-13T09:31:34.801Z,18.28
2018-06-13T09:32:43.731Z,18.41
2018-06-13T09:33:52.387Z,18.42
2018-06-13T09:35:01.293Z,18.42
2018-06-13T09:36:10.207Z,18.45
2018-06-13T09:37:18.864Z,18.42
2018-06-13T09:38:27.503Z,18.53
2018-06-13T09:39:36.141Z,18.52
2018-06-13T09:40:44.790Z,18.57
2018-06-13T09:41:53.437Z,18.7
2018-06-13T09:43:02.096Z,18.82
2018-06-13T09:44:10.742Z,18.89
2018-06-13T09:45:19.386Z,18.96
2018-06-13T09:46:28.035Z,18.96
2018-06-13T09:47:36.682Z,18.91
2018-06-13T09:48:45.339Z,18.85
2018-06-13T09:49:53.980Z,18.79
2018-06-13T09:51:02.633Z,18.71
2018-06-13T09:52:11.281Z,18.81
2018-06-13T09:53:20.198Z,18.74
2018-06-13T09:54:28.843Z,18.71
2018-06-13T09:55:37.498Z,18.61
2018-06-13T09:56:46.171Z,18.67
2018-06-13T09:57:54.801Z,18.68
2018-06-13T09:59:03.444Z,18.64
2018-06-13T10:00:12.096Z,18.53
2018-06-13T10:01:20.741Z,18.53
2018-06-13T10:02:29.387Z,18.48
2018-06-13T10:03:38.042Z,18.52
2018-06-13T10:04:47.431Z,18.61
2018-06-13T10:05:56.082Z,18.61
2018-06-13T10:07:04.720Z,18.74
2018-06-13T10:08:13.372Z,18.79
2018-06-13T10:09:22.014Z,18.86
2018-06-13T10:10:30.672Z,19.04
2018-06-13T10:11:39.317Z,18.82
2018-06-13T10:12:47.964Z,18.64
2018-06-13T10:13:56.620Z,18.64
2018-06-13T10:15:05.525Z,18.61
2018-06-13T10:16:14.180Z,18.53
2018-06-13T10:17:22.827Z,18.55
2018-06-13T10:18:31.480Z,18.67
2018-06-13T10:19:40.120Z,18.58
2018-06-13T10:20:49.038Z,18.64
2018-06-13T10:21:57.955Z,18.58
2018-06-13T10:23:06.614Z,18.55
2018-06-13T10:24:15.261Z,18.6
2018-06-13T10:25:24.533Z,18.6
2018-06-13T10:26:33.798Z,18.71
2018-06-13T10:27:42.654Z,18.58
2018-06-13T10:28:51.361Z,18.61
2018-06-13T10:29:59.948Z,18.67
2018-06-13T10:31:08.603Z,18.57
2018-06-13T10:32:17.248Z,18.57
2018-06-13T10:33:26.175Z,18.53
2018-06-13T10:34:34.814Z,18.57
2018-06-13T10:35:43.465Z,18.51
2018-06-13T10:36:52.113Z,18.41
2018-06-13T10:38:00.772Z,18.51
2018-06-13T10:39:09.419Z,18.51
2018-06-13T10:40:18.062Z,18.51
2018-06-13T10:41:26.978Z,18.55
2018-06-13T10:42:35.621Z,18.51
2018-06-13T10:43:44.278Z,18.57
2018-06-13T10:44:53.189Z,18.52
2018-06-13T10:46:01.839Z,18.6
2018-06-13T10:47:10.480Z,18.73
2018-06-13T10:48:19.137Z,18.74
2018-06-13T10:49:27.780Z,18.85
2018-06-13T10:50:36.436Z,18.76
2018-06-13T10:51:45.079Z,19
2018-06-13T10:52:53.740Z,18.83
2018-06-13T10:54:02.392Z,18.98
2018-06-13T10:55:11.306Z,19.09
2018-06-13T10:56:19.945Z,19.32
2018-06-13T10:57:28.596Z,19.47
2018-06-13T10:58:37.247Z,19.66
2018-06-13T10:59:46.166Z,19.82
2018-06-13T11:00:54.824Z,19.99
2018-06-13T11:02:03.465Z,19.99
2018-06-13T11:03:12.119Z,19.85
2018-06-13T11:04:21.031Z,19.56
2018-06-13T11:05:29.698Z,19.47
2018-06-13T11:06:38.604Z,19.39
2018-06-13T11:07:47.264Z,19.29
2018-06-13T11:08:55.909Z,19.07
2018-06-13T11:10:04.568Z,18.88
2018-06-13T11:11:13.479Z,18.61
2018-06-13T11:12:22.400Z,18.57
2018-06-13T11:13:31.051Z,18.46
2018-06-13T11:14:39.702Z,18.33
2018-06-13T11:15:48.348Z,18.3
2018-06-13T11:16:56.995Z,18.28
2018-06-13T11:18:05.642Z,18.37
2018-06-13T11:19:14.286Z,18.34
2018-06-13T11:20:22.994Z,18.37
2018-06-13T11:21:31.588Z,18.49
2018-06-13T11:22:40.500Z,18.41
2018-06-13T11:23:49.146Z,18.3
2018-06-13T11:24:57.794Z,18.23
2018-06-13T11:26:06.993Z,18.36
2018-06-13T11:27:15.628Z,18.33
2018-06-13T11:28:24.272Z,18.28
2018-06-13T11:29:32.924Z,18.26
2018-06-13T11:30:41.840Z,18.24
2018-06-13T11:31:50.491Z,18.28
2018-06-13T11:32:59.399Z,18.19
2018-06-13T11:34:08.048Z,18.24
2018-06-13T11:35:16.960Z,18.27
2018-06-13T11:36:25.611Z,18.3
2018-06-13T11:37:34.263Z,18.27
2018-06-13T11:38:42.907Z,18.27
2018-06-13T11:39:51.556Z,18.42
2018-06-13T11:41:00.202Z,18.53
2018-06-13T11:42:08.858Z,18.57
2018-06-13T11:43:17.502Z,18.63
2018-06-13T11:44:26.155Z,18.51
2018-06-13T11:45:35.327Z,18.53
2018-06-13T11:46:43.980Z,18.66
2018-06-13T11:47:52.894Z,18.68
2018-06-13T11:49:01.807Z,18.68
2018-06-13T11:50:10.455Z,18.91
2018-06-13T11:51:19.108Z,18.96
2018-06-13T11:52:28.035Z,19
2018-06-13T11:53:36.690Z,19.2
2018-06-13T11:54:45.330Z,19.17
2018-06-13T11:55:53.979Z,19.34
2018-06-13T11:57:02.634Z,19.55
2018-06-13T11:58:11.284Z,19.64
2018-06-13T11:59:19.932Z,19.48
2018-06-13T12:00:28.612Z,19.29
2018-06-13T12:01:37.233Z,19.34
2018-06-13T12:02:45.879Z,19.39
2018-06-13T12:03:54.530Z,19.47
2018-06-13T12:05:03.445Z,19.63
2018-06-13T12:06:12.473Z,19.81
2018-06-13T12:07:21.080Z,19.9
2018-06-13T12:08:29.733Z,19.93
2018-06-13T12:09:38.389Z,20.07
2018-06-13T12:10:47.306Z,19.96
2018-06-13T12:11:55.966Z,19.89
2018-06-13T12:13:04.614Z,19.75
2018-06-13T12:14:13.526Z,19.71
2018-06-13T12:15:22.185Z,19.66
2018-06-13T12:16:30.836Z,19.71
2018-06-13T12:17:39.489Z,19.7
2018-06-13T12:18:48.129Z,19.59
2018-06-13T12:19:56.788Z,19.55
2018-06-13T12:21:05.432Z,19.55
2018-06-13T12:22:14.086Z,19.47
2018-06-13T12:23:22.724Z,19.47
2018-06-13T12:24:31.385Z,19.3
2018-06-13T12:25:40.033Z,19.38
2018-06-13T12:26:48.684Z,19.49
2018-06-13T12:27:57.591Z,19.55
2018-06-13T12:29:06.241Z,19.67
2018-06-13T12:30:15.163Z,19.72
2018-06-13T12:31:24.072Z,19.7
2018-06-13T12:32:32.724Z,19.67
2018-06-13T12:33:41.624Z,19.78
2018-06-13T12:34:50.279Z,19.71
2018-06-13T12:35:58.923Z,19.99
2018-06-13T12:37:07.585Z,20.03
2018-06-13T12:38:16.224Z,20.11
2018-06-13T12:39:24.879Z,20.03
2018-06-13T12:40:33.523Z,20.1
2018-06-13T12:41:42.186Z,20.07
2018-06-13T12:42:50.830Z,19.99
2018-06-13T12:43:59.486Z,20.04
2018-06-13T12:45:08.135Z,19.81
2018-06-13T12:46:17.059Z,19.7
2018-06-13T12:47:25.708Z,19.39
2018-06-13T12:48:34.357Z,19.34
2018-06-13T12:49:43.007Z,19.3
2018-06-13T12:50:51.703Z,19.3
2018-06-13T12:52:00.311Z,19.32
2018-06-13T12:53:08.956Z,19.29
2018-06-13T12:54:17.610Z,19.23
2018-06-13T12:55:26.251Z,19.22
2018-06-13T12:56:35.172Z,19.24
2018-06-13T12:57:43.819Z,19.29
2018-06-13T12:58:52.550Z,19.29
2018-06-13T13:00:01.475Z,19.38
2018-06-13T13:01:10.134Z,19.38
2018-06-13T13:02:18.785Z,19.45
2018-06-13T13:03:27.436Z,19.63
2018-06-13T13:04:36.115Z,19.63
2018-06-13T13:05:44.730Z,19.72
2018-06-13T13:06:53.391Z,19.39
2018-06-13T13:08:02.305Z,19.45
2018-06-13T13:09:11.212Z,19.53
2018-06-13T13:10:19.861Z,19.63
2018-06-13T13:11:28.777Z,19.64
2018-06-13T13:12:37.479Z,19.74
2018-06-13T13:13:46.084Z,19.89
2018-06-13T13:14:54.736Z,19.85
2018-06-13T13:16:03.385Z,19.82
2018-06-13T13:17:12.039Z,19.94
2018-06-13T13:18:20.956Z,19.96
2018-06-13T13:19:29.601Z,20.1
2018-06-13T13:20:38.252Z,20.18
2018-06-13T13:21:46.898Z,20.18
2018-06-13T13:22:55.553Z,20.36
2018-06-13T13:24:04.481Z,20.52
2018-06-13T13:25:13.390Z,20.52
2018-06-13T13:26:22.037Z,20.48
2018-06-13T13:27:30.689Z,20.34
2018-06-13T13:28:39.346Z,20.34
2018-06-13T13:29:48.254Z,20.17
2018-06-13T13:30:56.903Z,20.27
2018-06-13T13:32:05.549Z,20.39
2018-06-13T13:33:14.202Z,20.29
2018-06-13T13:34:22.852Z,20.18
2018-06-13T13:35:31.503Z,20.19
2018-06-13T13:36:40.150Z,20.14
2018-06-13T13:37:48.804Z,20.1
2018-06-13T13:38:57.454Z,20.24
2018-06-13T13:40:06.107Z,20.22
2018-06-13T13:41:15.017Z,20.17
2018-06-13T13:42:23.669Z,20.12
2018-06-13T13:43:32.583Z,20.07
2018-06-13T13:44:41.236Z,20.1
2018-06-13T13:45:49.994Z,20
2018-06-13T13:46:58.535Z,20.04
2018-06-13T13:48:07.187Z,19.93
2018-06-13T13:49:15.835Z,19.85
2018-06-13T13:50:24.491Z,19.77
2018-06-13T13:51:33.147Z,19.7
2018-06-13T13:52:41.797Z,19.72
2018-06-13T13:53:50.452Z,19.6
2018-06-13T13:54:59.100Z,19.63
2018-06-13T13:56:07.747Z,19.78
2018-06-13T13:57:16.400Z,19.75
2018-06-13T13:58:25.049Z,19.85
2018-06-13T13:59:33.702Z,19.93
2018-06-13T14:00:42.354Z,20.07
2018-06-13T14:01:51.004Z,20.02
2018-06-13T14:02:59.652Z,20.11
2018-06-13T14:04:08.302Z,20.03
2018-06-13T14:05:16.958Z,19.96
2018-06-13T14:06:25.606Z,19.81
2018-06-13T14:07:34.256Z,19.78
2018-06-13T14:08:42.910Z,19.81
2018-06-13T14:09:51.554Z,19.84
2018-06-13T14:11:00.480Z,19.96
2018-06-13T14:12:09.147Z,20.03
2018-06-13T14:13:17.775Z,20.1
2018-06-13T14:14:26.423Z,20.14
2018-06-13T14:15:35.075Z,20.18
2018-06-13T14:16:43.725Z,20.17
2018-06-13T14:17:52.378Z,20.19
2018-06-13T14:19:01.024Z,20.17
2018-06-13T14:20:09.675Z,19.97
2018-06-13T14:21:18.321Z,19.96
2018-06-13T14:22:27.095Z,19.93
2018-06-13T14:23:35.629Z,20.07
2018-06-13T14:24:44.276Z,20.08
2018-06-13T14:25:52.927Z,20.1
2018-06-13T14:27:01.842Z,20.08
2018-06-13T14:28:11.020Z,20.04
2018-06-13T14:29:19.672Z,20.07
2018-06-13T14:30:28.320Z,20.17
2018-06-13T14:31:36.969Z,20.19
2018-06-13T14:32:45.622Z,20.21
2018-06-13T14:33:54.271Z,20.39
2018-06-13T14:35:03.191Z,20.24
2018-06-13T14:36:12.104Z,20.18
2018-06-13T14:37:21.364Z,20.1
2018-06-13T14:38:29.995Z,20.14
2018-06-13T14:39:38.644Z,20.07
2018-06-13T14:40:47.298Z,19.93
2018-06-13T14:41:55.944Z,19.84
2018-06-13T14:43:04.594Z,19.78
2018-06-13T14:44:13.244Z,19.67
2018-06-13T14:45:21.898Z,19.6
2018-06-13T14:46:30.545Z,19.49
2018-06-13T14:47:39.195Z,19.42